Terminal Aerodrome Forecast
Issued by NWS

Home | Current Version | Previous Version | Graphics & Text | Print | Product List | Glossary On
Versions: 1 2 3 4 5 6 7 8 9 10 11 12 13 14 15 16 17 18 19
000
FTUS41 KCLE 220500 RRA
TAFFDY
TAF
KFDY 220542Z 2206/2306 33010KT P6SM SCT015 OVC025
      TEMPO 2206/2210 4SM -SHRA OVC015
     FM221600 34008KT P6SM SCT025=

USA.gov is the U.S. government's official web portal to all federal, state and local government web resources and services.